createdAt,value
2019-04-05T00:00:39.179Z,59.10
2019-04-05T00:02:14.285Z,56.17
2019-04-05T00:03:48.986Z,55.30
2019-04-05T00:05:23.689Z,59.73
2019-04-05T00:06:58.384Z,56.17
2019-04-05T00:08:33.044Z,53.13
2019-04-05T00:10:08.460Z,55.13
2019-04-05T00:11:43.125Z,60.87
2019-04-05T00:13:17.765Z,55.83
2019-04-05T00:14:52.462Z,53.30
2019-04-05T00:16:27.258Z,52.30
2019-04-05T00:18:01.893Z,53.07
2019-04-05T00:19:36.550Z,56.77
2019-04-05T00:21:11.299Z,56.27
2019-04-05T00:22:45.963Z,56.33
2019-04-05T00:24:20.644Z,56.07
2019-04-05T00:25:55.299Z,56.43
2019-04-05T00:27:29.973Z,50.57
2019-04-05T00:29:05.722Z,55.30
2019-04-05T00:30:40.398Z,59.00
2019-04-05T00:32:15.082Z,55.97
2019-04-05T00:33:49.709Z,57.00
2019-04-05T00:35:24.378Z,51.87
2019-04-05T00:36:59.024Z,53.13
2019-04-05T00:38:33.680Z,52.23
2019-04-05T00:40:09.715Z,52.50
2019-04-05T00:41:44.376Z,53.57
2019-04-05T00:43:19.017Z,50.30
2019-04-05T00:44:53.752Z,54.27
2019-04-05T00:46:28.446Z,48.20
2019-04-05T00:48:03.194Z,53.27
2019-04-05T00:49:38.928Z,53.23
2019-04-05T00:51:14.829Z,55.00
2019-04-05T00:52:49.554Z,57.83
2019-04-05T00:54:24.314Z,57.47
2019-04-05T00:55:59.037Z,53.70
2019-04-05T00:57:33.725Z,52.10
2019-04-05T00:59:08.368Z,55.60
2019-04-05T01:00:43.010Z,57.73
2019-04-05T01:02:17.784Z,53.30
2019-04-05T01:03:52.400Z,52.93
2019-04-05T01:05:27.138Z,51.17
2019-04-05T01:07:01.933Z,56.57
2019-04-05T01:08:36.664Z,49.60
2019-04-05T01:10:11.892Z,52.97
2019-04-05T01:11:46.617Z,56.93
2019-04-05T01:13:22.219Z,54.60
2019-04-05T01:14:57.045Z,54.40
2019-04-05T01:16:31.799Z,58.73
2019-04-05T01:18:06.569Z,56.00
2019-04-05T01:19:41.883Z,51.10
2019-04-05T01:21:19.966Z,52.53
2019-04-05T01:22:55.197Z,51.10
2019-04-05T01:24:30.045Z,49.73
2019-04-05T01:26:05.391Z,54.03
2019-04-05T01:27:41.240Z,50.80
2019-04-05T01:46:19.174Z,57.40
2019-04-05T01:47:53.912Z,52.83
2019-04-05T01:49:28.551Z,49.33
2019-04-05T01:51:03.234Z,48.67
2019-04-05T01:52:38.048Z,50.40
2019-04-05T01:54:12.774Z,48.53
2019-04-05T01:55:47.443Z,47.30
2019-04-05T01:57:22.131Z,50.10
2019-04-05T01:58:56.811Z,48.10
2019-04-05T02:00:31.502Z,46.87
2019-04-05T02:02:06.362Z,51.10
2019-04-05T02:03:41.054Z,51.63
2019-04-05T02:05:16.137Z,54.27
2019-04-05T02:06:50.848Z,49.30
2019-04-05T02:08:25.822Z,49.80
2019-04-05T02:10:00.538Z,49.43
2019-04-05T02:11:36.354Z,52.53
2019-04-05T02:13:11.096Z,49.87
2019-04-05T02:14:46.883Z,47.97
2019-04-05T02:16:21.669Z,51.23
2019-04-05T02:17:56.933Z,49.30
2019-04-05T02:19:31.658Z,48.60
2019-04-05T02:21:07.372Z,50.73
2019-04-05T02:22:42.195Z,48.23
2019-04-05T02:24:16.896Z,48.07
2019-04-05T02:25:51.609Z,55.33
2019-04-05T02:27:26.235Z,48.87
2019-04-05T02:29:00.953Z,46.00
2019-04-05T02:30:35.821Z,52.97
2019-04-05T02:32:10.549Z,52.17
2019-04-05T02:33:45.222Z,51.43
2019-04-05T02:35:19.869Z,54.93
2019-04-05T02:36:54.510Z,47.70
2019-04-05T02:38:29.220Z,52.90
2019-04-05T02:40:04.089Z,47.57
2019-04-05T02:41:39.703Z,49.60
2019-04-05T02:43:15.906Z,44.83
2019-04-05T02:44:51.653Z,47.87
2019-04-05T02:46:26.991Z,46.33
2019-04-05T02:48:04.622Z,42.73
2019-04-05T02:49:39.657Z,50.73
2019-04-05T02:51:14.969Z,44.47
2019-04-05T02:52:50.681Z,45.47
2019-04-05T02:54:25.681Z,45.10
2019-04-05T02:56:03.048Z,48.23
2019-04-05T02:57:36.942Z,47.33
2019-04-05T02:59:12.495Z,48.97
2019-04-05T03:00:47.506Z,46.03
2019-04-05T03:02:22.328Z,44.03
2019-04-05T03:03:57.053Z,46.87
2019-04-05T03:05:32.504Z,44.43
2019-04-05T03:07:07.445Z,47.67
2019-04-05T03:08:43.348Z,47.53
2019-04-05T03:10:45.714Z,46.17
2019-04-05T03:12:20.592Z,44.00
2019-04-05T03:13:57.357Z,42.33
2019-04-05T03:15:32.076Z,45.70
2019-04-05T03:17:07.404Z,49.43
2019-04-05T03:18:45.235Z,44.10
2019-04-05T03:20:20.103Z,49.87
2019-04-05T03:21:59.957Z,43.50
2019-04-05T03:23:36.740Z,45.93
2019-04-05T03:25:11.771Z,50.27
2019-04-05T03:26:50.825Z,48.40
2019-04-05T03:28:26.037Z,49.57
2019-04-05T03:30:00.983Z,47.03
2019-04-05T03:31:35.728Z,47.30
2019-04-05T03:33:10.351Z,44.37
2019-04-05T03:34:45.091Z,44.53
2019-04-05T03:36:20.094Z,44.03
2019-04-05T03:37:54.830Z,48.60
2019-04-05T03:39:29.481Z,43.63
2019-04-05T03:41:05.515Z,44.60
2019-04-05T03:42:40.290Z,50.90
2019-04-05T03:44:14.965Z,47.43
2019-04-05T03:45:49.983Z,44.43
2019-04-05T03:47:24.833Z,48.33
2019-04-05T03:48:59.539Z,43.17
2019-04-05T03:50:34.238Z,47.03
2019-04-05T03:52:08.975Z,45.43
2019-04-05T03:53:43.694Z,49.27
2019-04-05T03:55:18.526Z,49.73
2019-04-05T03:56:53.458Z,49.27
2019-04-05T03:58:28.076Z,49.60
2019-04-05T04:00:02.826Z,50.00
2019-04-05T04:01:38.282Z,47.57
2019-04-05T04:03:13.182Z,46.87
2019-04-05T04:04:47.843Z,47.33
2019-04-05T04:06:22.625Z,51.87
2019-04-05T04:07:57.404Z,48.50
2019-04-05T04:09:32.209Z,47.23
2019-04-05T04:11:07.838Z,51.30
2019-04-05T04:12:42.576Z,49.47
2019-04-05T04:14:17.298Z,48.13
2019-04-05T04:15:53.227Z,51.53
2019-04-05T04:17:27.848Z,45.50
2019-04-05T04:19:02.846Z,48.63
2019-04-05T04:20:40.823Z,48.37
2019-04-05T04:22:22.999Z,48.10
2019-04-05T04:23:57.696Z,48.53
2019-04-05T04:25:32.545Z,48.57
2019-04-05T04:27:07.287Z,54.63
2019-04-05T04:28:44.950Z,50.07
2019-04-05T04:30:19.680Z,50.50
2019-04-05T04:31:54.620Z,48.43
2019-04-05T04:33:29.535Z,51.07
2019-04-05T04:35:04.939Z,48.60
2019-04-05T04:36:39.625Z,49.37
2019-04-05T04:38:14.464Z,50.20
2019-04-05T04:39:50.746Z,46.43
2019-04-05T04:41:25.523Z,48.87
2019-04-05T04:43:01.325Z,47.93
2019-04-05T04:44:37.762Z,49.53
2019-04-05T04:46:13.104Z,48.43
2019-04-05T04:47:47.923Z,53.03
2019-04-05T04:49:22.852Z,51.70
2019-04-05T04:50:57.743Z,45.40
2019-04-05T04:52:33.045Z,45.57
2019-04-05T04:54:07.796Z,52.67
2019-04-05T04:55:42.719Z,48.43
2019-04-05T04:57:17.639Z,46.33
2019-04-05T04:58:52.300Z,46.93
2019-04-05T05:00:27.544Z,48.13
2019-04-05T05:02:02.254Z,51.33
2019-04-05T05:03:37.063Z,45.50
2019-04-05T05:05:12.602Z,50.70
2019-04-05T05:06:47.413Z,46.17
2019-04-05T05:08:22.149Z,44.60
2019-04-05T05:09:57.084Z,49.17
2019-04-05T05:11:32.025Z,46.93
2019-04-05T05:13:06.830Z,48.33
2019-04-05T05:14:42.127Z,48.60
2019-04-05T05:16:17.232Z,45.97
2019-04-05T05:17:58.461Z,43.43
2019-04-05T05:19:28.756Z,47.50
2019-04-05T05:21:03.419Z,48.87
2019-04-05T05:22:38.370Z,43.67
2019-04-05T05:24:13.207Z,45.63
2019-04-05T05:25:47.922Z,38.97
2019-04-05T05:27:22.631Z,41.73
2019-04-05T05:28:57.390Z,42.37
2019-04-05T05:30:32.075Z,42.27
2019-04-05T05:32:09.569Z,45.83
2019-04-05T05:33:43.228Z,39.53
2019-04-05T05:35:17.894Z,36.70
2019-04-05T05:36:52.743Z,38.20
2019-04-05T05:38:27.576Z,43.63
2019-04-05T05:40:02.363Z,39.50
2019-04-05T05:41:37.107Z,46.47
2019-04-05T05:43:11.862Z,37.83
2019-04-05T05:44:46.578Z,40.43
2019-04-05T05:46:21.241Z,38.60
2019-04-05T05:47:55.964Z,41.07
2019-04-05T05:49:30.677Z,42.07
2019-04-05T05:51:05.398Z,41.17
2019-04-05T05:52:40.226Z,42.50
2019-04-05T05:54:14.957Z,44.67
2019-04-05T05:55:49.771Z,42.57
2019-04-05T05:57:24.497Z,41.33
2019-04-05T05:58:59.645Z,38.07
2019-04-05T06:00:35.271Z,37.67
2019-04-05T06:02:09.927Z,39.73
2019-04-05T06:03:44.575Z,42.97
2019-04-05T06:05:19.453Z,43.17
2019-04-05T06:06:54.171Z,48.83
2019-04-05T06:08:29.988Z,43.73
2019-04-05T06:10:05.349Z,50.37
2019-04-05T06:11:40.019Z,47.37
2019-04-05T06:13:14.710Z,48.17
2019-04-05T06:14:49.460Z,44.73
2019-04-05T06:16:24.133Z,45.33
2019-04-05T06:18:04.514Z,46.33
2019-04-05T06:19:35.446Z,46.87
2019-04-05T06:21:10.104Z,50.77
2019-04-05T06:22:47.503Z,50.60
2019-04-05T06:24:21.165Z,50.07
2019-04-05T06:25:55.813Z,44.57
2019-04-05T06:27:30.458Z,46.57
2019-04-05T06:29:05.185Z,48.37
2019-04-05T06:30:39.856Z,48.37
2019-04-05T06:32:14.518Z,50.50
2019-04-05T06:33:49.165Z,50.27
2019-04-05T06:35:23.888Z,47.90
2019-04-05T06:36:58.534Z,51.93
2019-04-05T06:38:33.156Z,53.60
2019-04-05T06:40:07.895Z,45.87
2019-04-05T06:41:42.615Z,50.43
2019-04-05T06:43:17.334Z,49.03
2019-04-05T06:44:52.055Z,51.33
2019-04-05T06:46:26.700Z,49.20
2019-04-05T06:48:01.338Z,52.93
2019-04-05T06:49:36.963Z,53.50
2019-04-05T06:51:11.632Z,46.83
2019-04-05T06:52:47.280Z,47.00
2019-04-05T06:54:21.935Z,50.67
2019-04-05T06:55:59.579Z,50.80
2019-04-05T06:57:32.917Z,50.57
2019-04-05T06:59:07.557Z,49.60
2019-04-05T07:00:56.105Z,53.13
2019-04-05T07:02:18.772Z,48.87
2019-04-05T07:03:55.225Z,48.83
2019-04-05T07:05:30.102Z,53.80
2019-04-05T07:07:04.864Z,46.70
2019-04-05T07:08:39.537Z,52.17
2019-04-05T07:10:14.311Z,53.13
2019-04-05T07:11:49.109Z,44.87
2019-04-05T07:13:23.784Z,49.77
2019-04-05T07:14:58.424Z,49.60
2019-04-05T07:16:33.487Z,54.40
2019-04-05T07:18:08.211Z,46.83
2019-04-05T07:19:42.864Z,53.10
2019-04-05T07:21:20.349Z,53.30
2019-04-05T07:22:54.989Z,53.70
2019-04-05T07:24:29.661Z,49.03
2019-04-05T07:26:04.339Z,52.50
2019-04-05T07:27:39.023Z,52.37
2019-04-05T07:29:13.664Z,59.87
2019-04-05T07:30:48.311Z,56.60
2019-04-05T07:32:23.001Z,51.37
2019-04-05T07:33:57.655Z,52.87
2019-04-05T07:35:33.963Z,49.47
2019-04-05T07:37:08.892Z,53.17
2019-04-05T07:38:43.600Z,48.83
2019-04-05T07:40:19.179Z,55.07
2019-04-05T07:41:53.831Z,55.93
2019-04-05T07:43:28.493Z,57.53
2019-04-05T07:45:03.294Z,53.80
2019-04-05T07:46:39.008Z,56.07
2019-04-05T07:48:13.642Z,56.23
2019-04-05T07:49:48.296Z,54.30
2019-04-05T07:51:23.012Z,51.47
2019-04-05T07:52:57.744Z,55.77
2019-04-05T07:54:32.453Z,50.53
2019-04-05T07:56:07.104Z,54.67
2019-04-05T07:57:42.790Z,58.20
2019-04-05T07:59:17.446Z,53.63
2019-04-05T08:00:53.732Z,50.13
2019-04-05T08:02:28.457Z,52.67
2019-04-05T08:04:03.194Z,51.77
2019-04-05T08:05:38.186Z,55.43
2019-04-05T08:07:13.752Z,52.17
2019-04-05T08:09:09.299Z,54.73
2019-04-05T08:10:44.386Z,55.70
2019-04-05T08:12:19.401Z,50.13
2019-04-05T08:13:55.481Z,56.47
2019-04-05T08:15:30.402Z,56.07
2019-04-05T08:17:05.354Z,56.40
2019-04-05T08:18:40.026Z,53.90
2019-04-05T08:20:14.759Z,56.73
2019-04-05T08:21:49.448Z,52.00
2019-04-05T08:23:24.101Z,53.13
2019-04-05T08:24:58.822Z,56.43
2019-04-05T08:26:33.773Z,53.10
2019-04-05T08:28:08.427Z,58.03
2019-04-05T08:29:43.119Z,55.63
2019-04-05T08:31:17.781Z,53.37
2019-04-05T08:32:52.510Z,53.93
2019-04-05T08:34:27.146Z,51.97
2019-04-05T08:36:01.804Z,56.50
2019-04-05T08:37:36.527Z,51.83
2019-04-05T08:39:11.258Z,55.00
2019-04-05T08:40:46.000Z,51.57
2019-04-05T08:42:20.697Z,59.43
2019-04-05T08:43:55.371Z,50.43
2019-04-05T08:45:30.098Z,54.73
2019-04-05T08:47:04.913Z,55.20
2019-04-05T08:48:39.564Z,51.17
2019-04-05T08:50:14.475Z,50.57
2019-04-05T08:51:49.188Z,57.93
2019-04-05T08:53:23.821Z,53.87
2019-04-05T08:54:58.482Z,54.10
2019-04-05T08:56:33.166Z,48.20
2019-04-05T08:58:07.817Z,51.77
2019-04-05T08:59:42.485Z,51.30
2019-04-05T09:01:17.309Z,49.00
2019-04-05T09:02:52.228Z,56.80
2019-04-05T09:04:26.918Z,56.20
2019-04-05T09:06:01.680Z,51.57
2019-04-05T09:07:36.339Z,51.50
2019-04-05T09:09:10.989Z,53.10
2019-04-05T09:10:45.665Z,50.03
2019-04-05T09:12:20.311Z,49.50
2019-04-05T09:13:55.024Z,52.80
2019-04-05T09:15:29.662Z,56.93
2019-04-05T09:17:04.401Z,52.67
2019-04-05T09:18:39.032Z,51.17
2019-04-05T09:20:13.829Z,51.37
2019-04-05T09:21:48.599Z,47.17
2019-04-05T09:23:23.295Z,55.60
2019-04-05T09:24:57.978Z,52.93
2019-04-05T09:26:32.653Z,52.03
2019-04-05T09:28:07.303Z,51.07
2019-04-05T09:29:42.125Z,47.40
2019-04-05T09:31:16.791Z,47.37
2019-04-05T09:32:51.582Z,50.67
2019-04-05T09:34:26.228Z,45.40
2019-04-05T09:36:00.905Z,48.07
2019-04-05T09:37:35.583Z,47.60
2019-04-05T09:39:15.263Z,51.57
2019-04-05T09:40:47.884Z,48.03
2019-04-05T09:42:22.599Z,47.50
2019-04-05T09:43:57.308Z,48.73
2019-04-05T09:45:31.956Z,49.13
2019-04-05T09:47:06.671Z,48.13
2019-04-05T09:48:41.318Z,55.60
2019-04-05T09:50:16.219Z,49.47
2019-04-05T09:51:51.055Z,48.13
2019-04-05T09:53:25.818Z,45.40
2019-04-05T09:55:00.481Z,42.07
2019-04-05T09:56:35.155Z,44.43
2019-04-05T09:58:10.359Z,44.17
2019-04-05T09:59:45.232Z,43.60
2019-04-05T10:01:19.983Z,48.13
2019-04-05T10:02:54.747Z,46.97
2019-04-05T10:04:31.199Z,41.73
2019-04-05T10:06:05.875Z,43.27
2019-04-05T10:07:53.815Z,46.40
2019-04-05T10:09:16.989Z,43.80
2019-04-05T10:10:51.683Z,44.27
2019-04-05T10:12:27.728Z,42.80
2019-04-05T10:14:02.388Z,46.60
2019-04-05T10:15:37.024Z,43.43
2019-04-05T10:17:12.122Z,45.47
2019-04-05T10:18:46.790Z,41.77
2019-04-05T10:20:21.542Z,46.80
2019-04-05T10:21:56.178Z,46.20
2019-04-05T10:23:30.865Z,42.77
2019-04-05T10:25:06.004Z,45.93
2019-04-05T10:26:40.668Z,41.23
2019-04-05T10:28:15.404Z,44.63
2019-04-05T10:29:50.045Z,40.60
2019-04-05T10:31:24.844Z,47.00
2019-04-05T10:32:59.530Z,38.97
2019-04-05T10:34:34.183Z,40.47
2019-04-05T10:36:08.824Z,38.63
2019-04-05T10:37:43.483Z,38.00
2019-04-05T10:39:18.166Z,40.63
2019-04-05T10:40:55.554Z,43.97
2019-04-05T10:42:33.848Z,41.03
2019-04-05T10:44:11.753Z,38.03
2019-04-05T10:45:46.909Z,42.73
2019-04-05T10:47:21.790Z,42.97
2019-04-05T10:48:56.528Z,42.83
2019-04-05T10:50:32.189Z,42.00
2019-04-05T10:52:06.835Z,38.10
2019-04-05T10:53:41.516Z,38.17
2019-04-05T10:55:16.265Z,43.00
2019-04-05T10:56:50.913Z,38.77
2019-04-05T10:58:25.662Z,35.57
2019-04-05T11:00:00.317Z,39.53
2019-04-05T11:01:35.034Z,38.37
2019-04-05T11:03:09.724Z,40.83
2019-04-05T11:04:44.477Z,43.53
2019-04-05T11:06:19.129Z,43.73
2019-04-05T11:07:53.777Z,44.20
2019-04-05T11:09:28.450Z,42.23
2019-04-05T11:11:03.126Z,38.80
2019-04-05T11:12:37.900Z,43.67
2019-04-05T11:14:13.922Z,40.00
2019-04-05T11:15:49.067Z,39.00
2019-04-05T11:17:23.731Z,40.13
2019-04-05T11:19:01.887Z,39.10
2019-04-05T11:20:34.736Z,40.47
2019-04-05T11:22:09.364Z,42.10
2019-04-05T11:23:44.022Z,38.37
2019-04-05T11:25:20.667Z,43.00
2019-04-05T11:26:55.261Z,43.77
2019-04-05T11:28:31.194Z,42.97
2019-04-05T11:30:06.650Z,41.43
2019-04-05T11:31:41.333Z,43.00
2019-04-05T11:33:19.369Z,43.73
2019-04-05T11:34:52.683Z,40.23
2019-04-05T11:36:27.506Z,39.73
2019-04-05T11:38:02.228Z,42.83
2019-04-05T11:39:36.950Z,45.77
2019-04-05T11:41:11.722Z,40.53
2019-04-05T11:42:46.881Z,45.47
2019-04-05T11:44:23.060Z,39.23
2019-04-05T11:45:57.894Z,43.80
2019-04-05T11:47:32.976Z,44.27
2019-04-05T11:49:07.696Z,44.87
2019-04-05T11:50:42.414Z,40.93
2019-04-05T11:52:17.080Z,42.67
2019-04-05T11:53:51.772Z,38.90
2019-04-05T11:55:26.436Z,37.77
2019-04-05T11:57:01.193Z,38.40
2019-04-05T11:58:35.839Z,39.93
2019-04-05T12:00:15.004Z,45.53
2019-04-05T12:01:56.317Z,41.73
2019-04-05T12:03:31.018Z,42.27
2019-04-05T12:05:06.265Z,44.90
2019-04-05T12:06:40.902Z,43.27
2019-04-05T12:08:15.552Z,43.43
2019-04-05T12:09:50.299Z,41.47
2019-04-05T12:11:24.951Z,38.00
2019-04-05T12:12:59.611Z,40.67
2019-04-05T12:14:36.377Z,39.63
2019-04-05T12:16:11.244Z,35.43
2019-04-05T12:17:45.968Z,44.30
2019-04-05T12:19:20.605Z,37.90
2019-04-05T12:21:00.001Z,38.07
2019-04-05T12:22:32.638Z,38.90
2019-04-05T12:24:08.243Z,45.60
2019-04-05T12:25:43.086Z,43.63
2019-04-05T12:27:20.607Z,39.47
2019-04-05T12:28:54.184Z,40.73
2019-04-05T12:30:28.917Z,46.63
2019-04-05T12:32:03.958Z,42.57
2019-04-05T12:33:38.588Z,41.73
2019-04-05T12:35:13.315Z,42.63
2019-04-05T12:36:47.962Z,44.37
2019-04-05T12:38:33.023Z,40.57
2019-04-05T12:40:10.244Z,38.47
2019-04-05T12:41:45.614Z,46.00
2019-04-05T12:43:20.267Z,93.37
2019-04-05T12:44:55.790Z,42.80
2019-04-05T12:46:30.516Z,44.57
2019-04-05T12:48:05.278Z,41.33
2019-04-05T12:49:39.917Z,39.40
2019-04-05T12:51:15.566Z,37.53
2019-04-05T12:52:50.871Z,34.60
2019-04-05T12:54:25.510Z,40.20
2019-04-05T12:56:00.151Z,45.17
2019-04-05T12:57:34.864Z,38.47
2019-04-05T12:59:09.531Z,38.07
2019-04-05T13:00:44.261Z,39.07
2019-04-05T13:02:32.746Z,37.13
2019-04-05T13:03:55.302Z,41.23
2019-04-05T13:05:30.939Z,42.37
2019-04-05T13:07:05.718Z,40.87
2019-04-05T13:08:40.400Z,39.90
2019-04-05T13:10:15.050Z,43.00
2019-04-05T13:11:49.778Z,41.57
2019-04-05T13:13:26.655Z,39.60
2019-04-05T13:15:12.347Z,37.40
2019-04-05T13:16:39.755Z,39.57
2019-04-05T13:18:14.478Z,40.57
2019-04-05T13:19:49.122Z,35.43
2019-04-05T13:21:27.363Z,40.37
2019-04-05T13:23:02.473Z,40.23
2019-04-05T13:24:39.567Z,45.97
2019-04-05T13:26:12.929Z,41.57
2019-04-05T13:27:47.679Z,38.37
2019-04-05T13:29:22.350Z,40.00
2019-04-05T13:30:57.030Z,37.67
2019-04-05T13:32:31.674Z,39.37
2019-04-05T13:34:06.621Z,41.07
2019-04-05T13:35:41.339Z,40.17
2019-04-05T13:37:20.446Z,36.77
2019-04-05T13:38:54.889Z,34.80
2019-04-05T13:40:29.619Z,35.17
2019-04-05T13:42:04.963Z,39.90
2019-04-05T13:43:39.627Z,39.20
2019-04-05T13:45:15.547Z,36.40
2019-04-05T13:46:50.222Z,37.33
2019-04-05T13:48:24.892Z,36.87
2019-04-05T13:49:59.540Z,41.37
2019-04-05T13:51:34.203Z,39.67
2019-04-05T13:53:11.131Z,34.93
2019-04-05T13:54:45.260Z,35.90
2019-04-05T13:56:19.908Z,40.00
2019-04-05T13:57:54.847Z,33.47
2019-04-05T13:59:29.634Z,34.93
2019-04-05T14:01:04.481Z,34.03
2019-04-05T14:02:39.263Z,35.63
2019-04-05T14:04:16.864Z,36.27
2019-04-05T14:05:54.061Z,36.57
2019-04-05T14:07:26.697Z,36.73
2019-04-05T14:09:01.677Z,35.33
2019-04-05T14:10:37.660Z,36.70
2019-04-05T14:12:12.340Z,41.17
2019-04-05T14:13:47.081Z,38.43
2019-04-05T14:15:21.875Z,36.23
2019-04-05T14:16:56.539Z,34.37
2019-04-05T14:18:31.190Z,35.80
2019-04-05T14:20:09.281Z,34.97
2019-04-05T14:21:47.633Z,32.93
2019-04-05T14:23:23.048Z,37.20
2019-04-05T14:24:56.887Z,34.23
2019-04-05T14:26:32.443Z,36.87
2019-04-05T14:28:07.099Z,38.70
2019-04-05T14:29:41.779Z,38.57
2019-04-05T14:31:16.485Z,36.90
2019-04-05T14:32:55.283Z,42.27
2019-04-05T14:34:27.495Z,41.13
2019-04-05T14:36:02.157Z,36.83
2019-04-05T14:37:36.824Z,34.33
2019-04-05T14:39:11.746Z,36.53
2019-04-05T14:40:46.599Z,35.63
2019-04-05T14:42:22.293Z,34.53
2019-04-05T14:43:56.957Z,36.30
2019-04-05T14:45:31.634Z,36.53
2019-04-05T14:47:06.324Z,37.77
2019-04-05T14:48:40.995Z,41.13
2019-04-05T14:50:17.331Z,36.83
2019-04-05T14:51:54.885Z,41.20
2019-04-05T14:53:32.002Z,35.60
2019-04-05T14:55:05.012Z,38.03
2019-04-05T14:56:39.666Z,43.40
2019-04-05T14:58:14.319Z,38.67
2019-04-05T14:59:48.985Z,38.67
2019-04-05T15:01:23.947Z,35.40
2019-04-05T15:02:58.594Z,34.70
2019-04-05T15:04:33.322Z,37.23
2019-04-05T15:06:08.031Z,34.83
2019-04-05T15:07:42.702Z,39.23
2019-04-05T15:09:17.455Z,45.63
2019-04-05T15:10:52.118Z,40.13
2019-04-05T15:12:29.148Z,37.40
2019-04-05T15:14:03.226Z,39.17
2019-04-05T15:15:37.886Z,40.30
2019-04-05T15:17:12.624Z,40.10
2019-04-05T15:18:47.421Z,39.00
2019-04-05T15:20:23.052Z,43.23
2019-04-05T15:22:05.544Z,39.23
2019-04-05T15:23:34.012Z,37.50
2019-04-05T15:25:08.999Z,37.17
2019-04-05T15:26:43.726Z,35.07
2019-04-05T15:28:18.445Z,41.07
2019-04-05T15:29:55.350Z,36.27
2019-04-05T15:31:29.540Z,43.87
2019-04-05T15:33:05.614Z,38.23
2019-04-05T15:34:40.276Z,37.70
2019-04-05T15:36:15.891Z,39.00
2019-04-05T15:37:50.569Z,41.57
2019-04-05T15:39:25.223Z,41.47
2019-04-05T15:40:59.890Z,44.90
2019-04-05T15:42:34.628Z,44.57
2019-04-05T15:44:09.303Z,37.90
2019-04-05T15:45:44.172Z,38.83
2019-04-05T15:47:23.149Z,39.43
2019-04-05T15:48:55.877Z,41.90
2019-04-05T15:50:30.534Z,43.87
2019-04-05T15:52:17.787Z,38.97
2019-04-05T15:53:41.816Z,41.70
2019-04-05T15:55:16.534Z,43.83
2019-04-05T15:56:51.303Z,43.73
2019-04-05T15:58:26.398Z,44.73
2019-04-05T16:00:03.800Z,44.67
2019-04-05T16:01:38.455Z,43.60
2019-04-05T16:03:15.449Z,41.93
2019-04-05T16:04:51.238Z,44.97
2019-04-05T16:06:25.969Z,41.73
2019-04-05T16:08:00.698Z,41.67
2019-04-05T16:09:35.336Z,43.43
2019-04-05T16:11:09.974Z,40.30
2019-04-05T16:12:44.700Z,42.83
2019-04-05T16:14:19.360Z,48.93
2019-04-05T16:15:54.040Z,42.53
2019-04-05T16:17:28.788Z,44.30
2019-04-05T16:19:03.484Z,43.57
2019-04-05T16:20:38.459Z,45.57
2019-04-05T16:22:13.125Z,40.87
2019-04-05T16:23:47.773Z,43.63
2019-04-05T16:25:23.449Z,42.87
2019-04-05T16:26:58.370Z,39.27
2019-04-05T16:28:33.236Z,44.57
2019-04-05T16:30:08.470Z,43.47
2019-04-05T16:31:43.137Z,51.37
2019-04-05T16:33:17.799Z,42.27
2019-04-05T16:34:52.461Z,40.90
2019-04-05T16:36:30.796Z,46.30
2019-04-05T16:38:04.148Z,42.03
2019-04-05T16:39:38.843Z,44.40
2019-04-05T16:41:13.530Z,45.53
2019-04-05T16:43:01.497Z,46.37
2019-04-05T16:44:24.560Z,52.13
2019-04-05T16:45:59.555Z,44.57
2019-04-05T16:47:35.236Z,46.03
2019-04-05T16:49:09.876Z,49.23
2019-04-05T16:50:45.466Z,49.80
2019-04-05T16:52:20.118Z,50.37
2019-04-05T16:54:03.923Z,48.60
2019-04-05T16:55:38.652Z,46.97
2019-04-05T16:57:13.289Z,51.70
2019-04-05T16:58:47.977Z,50.13
2019-04-05T17:00:22.997Z,47.83
2019-04-05T17:01:57.684Z,45.33
2019-04-05T17:03:32.329Z,46.90
2019-04-05T17:05:07.441Z,42.97
2019-04-05T17:06:42.217Z,45.37
2019-04-05T17:08:16.868Z,46.07
2019-04-05T17:09:51.799Z,52.13
2019-04-05T17:11:26.466Z,46.43
2019-04-05T17:13:01.284Z,51.57
2019-04-05T17:14:35.923Z,44.03
2019-04-05T17:16:10.574Z,46.67
2019-04-05T17:17:45.512Z,47.53
2019-04-05T17:19:20.198Z,46.33
2019-04-05T17:20:54.845Z,51.17
2019-04-05T17:22:29.701Z,50.37
2019-04-05T17:24:04.566Z,48.23
2019-04-05T17:25:39.619Z,51.67
2019-04-05T17:27:14.570Z,53.70
2019-04-05T17:28:49.219Z,50.63
2019-04-05T17:30:23.951Z,51.50
2019-04-05T17:31:58.667Z,44.37
2019-04-05T17:33:33.314Z,42.60
2019-04-05T17:35:07.991Z,47.37
2019-04-05T17:36:42.644Z,55.10
2019-04-05T17:38:17.328Z,47.10
2019-04-05T17:39:51.990Z,48.30
2019-04-05T17:41:26.763Z,49.17
2019-04-05T17:43:01.416Z,49.83
2019-04-05T17:44:36.061Z,43.97
2019-04-05T17:46:10.805Z,51.97
2019-04-05T17:47:45.466Z,52.13
2019-04-05T17:49:20.199Z,56.07
2019-04-05T17:50:54.983Z,45.43
2019-04-05T17:52:29.732Z,56.10
2019-04-05T17:54:04.544Z,50.83
2019-04-05T17:55:39.548Z,49.67
2019-04-05T17:57:14.682Z,47.93
2019-04-05T17:58:50.247Z,52.10
2019-04-05T18:00:25.013Z,50.87
2019-04-05T18:01:59.801Z,53.47
2019-04-05T18:03:34.632Z,53.53
2019-04-05T18:05:09.516Z,52.17
2019-04-05T18:06:44.165Z,55.70
2019-04-05T18:08:18.803Z,52.57
2019-04-05T18:09:53.754Z,50.27
2019-04-05T18:11:28.384Z,51.27
2019-04-05T18:13:05.626Z,54.63
2019-04-05T18:14:40.272Z,52.37
2019-04-05T18:16:14.938Z,52.33
2019-04-05T18:17:49.587Z,53.83
2019-04-05T18:19:24.262Z,48.90
2019-04-05T18:20:58.970Z,52.20
2019-04-05T18:22:33.631Z,53.30
2019-04-05T18:24:08.282Z,53.00
2019-04-05T18:25:42.957Z,50.37
2019-04-05T18:27:17.660Z,56.77
2019-04-05T18:28:52.323Z,59.07
2019-04-05T18:30:26.969Z,56.17
2019-04-05T18:32:01.711Z,55.73
2019-04-05T18:33:37.328Z,60.40
2019-04-05T18:35:12.191Z,55.50
2019-04-05T18:36:46.978Z,53.37
2019-04-05T18:38:21.790Z,58.23
2019-04-05T18:39:57.714Z,54.63
2019-04-05T18:41:32.415Z,53.37
2019-04-05T18:43:08.299Z,50.80
2019-04-05T18:44:42.937Z,50.97
2019-04-05T18:46:17.579Z,49.87
2019-04-05T18:47:52.269Z,52.83
2019-04-05T18:49:26.922Z,53.57
2019-04-05T18:51:01.569Z,54.97
2019-04-05T18:52:36.227Z,52.53
2019-04-05T18:54:10.871Z,55.07
2019-04-05T18:55:45.506Z,54.97
2019-04-05T18:57:21.127Z,59.70
2019-04-05T18:58:55.768Z,50.87
2019-04-05T19:00:31.369Z,53.67
2019-04-05T19:02:06.117Z,56.50
2019-04-05T19:03:40.739Z,50.27
2019-04-05T19:05:15.561Z,53.27
2019-04-05T19:06:50.199Z,55.87
2019-04-05T19:08:24.822Z,56.67
2019-04-05T19:09:59.470Z,56.63
2019-04-05T19:11:35.304Z,53.20
2019-04-05T19:13:09.948Z,52.53
2019-04-05T19:14:44.578Z,53.67
2019-04-05T19:16:19.232Z,52.10
2019-04-05T19:17:53.886Z,62.43
2019-04-05T19:19:29.661Z,54.97
2019-04-05T19:21:04.326Z,64.03
2019-04-05T19:22:38.974Z,57.13
2019-04-05T19:24:13.599Z,61.47
2019-04-05T19:25:48.229Z,71.00
2019-04-05T19:27:22.877Z,64.43
2019-04-05T19:28:57.526Z,66.03
2019-04-05T19:49:50.010Z,59.87
2019-04-05T19:51:24.688Z,65.70
2019-04-05T19:53:00.692Z,63.90
2019-04-05T19:54:35.374Z,67.97
2019-04-05T19:56:10.010Z,62.60
2019-04-05T19:57:44.791Z,65.87
2019-04-05T19:59:19.455Z,76.50
2019-04-05T20:00:54.168Z,65.13
2019-04-05T20:02:28.815Z,64.90
2019-04-05T20:04:03.518Z,64.37
2019-04-05T20:05:38.204Z,62.47
2019-04-05T20:07:12.873Z,72.30
2019-04-05T20:08:47.523Z,64.70
2019-04-05T20:10:22.203Z,63.13
2019-04-05T20:11:56.904Z,68.67
2019-04-05T20:13:31.546Z,66.67
2019-04-05T20:15:07.040Z,69.03
2019-04-05T20:16:41.687Z,70.93
2019-04-05T20:18:16.399Z,71.03
2019-04-05T20:19:51.060Z,71.30
2019-04-05T20:21:25.774Z,68.00
2019-04-05T20:23:00.422Z,69.23
2019-04-05T20:24:35.063Z,66.60
2019-04-05T20:26:13.564Z,68.93
2019-04-05T20:27:48.211Z,71.30
2019-04-05T20:29:22.910Z,62.27
2019-04-05T20:30:57.751Z,67.73
2019-04-05T20:32:32.387Z,67.13
2019-04-05T20:34:07.127Z,68.53
2019-04-05T20:35:41.841Z,70.07
2019-04-05T20:37:16.632Z,70.60
2019-04-05T20:38:51.279Z,68.30
2019-04-05T20:40:25.955Z,67.17
2019-04-05T20:42:00.603Z,71.27
2019-04-05T20:43:35.247Z,64.97
2019-04-05T20:45:10.265Z,67.47
2019-04-05T20:46:44.921Z,62.63
2019-04-05T20:48:19.553Z,68.70
2019-04-05T20:49:54.196Z,69.90
2019-04-05T20:51:28.851Z,69.73
2019-04-05T20:53:03.518Z,66.13
2019-04-05T20:54:38.163Z,65.93
2019-04-05T20:56:13.124Z,65.60
2019-04-05T20:57:47.838Z,70.23
2019-04-05T20:59:22.500Z,70.33
2019-04-05T21:00:59.303Z,59.13